Portada
METAR-TAF:

METAR-TAF

Aeropuertos :

Aeropuerto Internacional de Malé

Malé, Maldivas

latitud: 04-12N, longitud: 073-32E, altitud: 2 m

Observación

El informe se hizo hace 55 minutos, a las 13:00 UTC
Viento 9 kt del este-noreste
Temperatura 28°C
Humedad 70%
Presión 1010 hPa
Visibilidad: 5000 m
Escasas nubes a una altura de 1800 ft
Cielo nuboso a una altura de 27000 ft
calima

METAR: VRMM 181300Z 06009KT 5000 HZ FEW018 BKN270 28/22 Q1010 NOSIG

Hora: 18:55 (13:55 UTC)

Pronóstico

El informe se hizo hace 2 horas y 55 minutos, a las 11:00 UTC
Pronóstico válido del 18 a las 12 UTC al 19 a las 18 UTC
Viento 13 kt del este-noreste
Visibilidad: 7000 m
Escasas nubes a una altura de 1800 ft
Temporalmente
del 18 a las 12 UTC al 18 a las 18 UTC
Escasas nubes a una altura de 1800 ft, Cumulonimbus.

TAF: VRMM 181100Z 1812/1918 06013KT 7000 FEW018 TEMPO 1812/1818 FEW018CB

Observaciones y pronósticos meteorológicos de más de 4000 aeropuertos (mensajes METAR y TAF).

Los puntos amarillos y rojos representan las estaciones disponibles.

Ponga el ratón en el punto deseado para ver el nombre de la estación.

Haga clic para ver las observaciones y los pronósticos meteorológicos.

Para cambiar el mapa : haga clic en los botones verdes con una cruz de color negro para hacer un zoom, en el botón verde con un guión para alejar o en las flechas verdes para mapas adyacentes.


METAR-TAF: